Home > Products > Valid Products > TAF

000
FTUS41 KCAR 221100
TAFHUL
TAF
KHUL 221120Z 2212/2312 VRB03KT P6SM BKN070
     FM221400 06010KT 3SM -RA BKN060
     FM221800 06013KT 2SM -RA OVC025
     FM230200 05014KT 3SM -RA OVC010=



000
FTUS41 KCAR 221100
TAFPQI
TAF
KPQI 221120Z 2212/2312 02006KT P6SM BKN110
     FM221500 04010KT P6SM BKN060
     FM222100 05014KT 3SM -RA OVC020
     FM230300 05012KT P6SM OVC015
      AMD LTD TO CLD VIS AND WIND=



000
FTUS41 KCAR 221100
TAFBHB
TAF
KBHB 221120Z 2212/2312 03014G20KT P6SM -RA OVC070
     FM221500 05016G25KT 2SM -RA OVC003
     FM230900 06020G28KT 2SM -RA OVC008
      AMD LTD TO CLD VIS AND WIND=



000
FTUS41 KCAR 221100
TAFBGR
TAF
KBGR 221120Z 2212/2312 02010KT P6SM -RA OVC070
     FM221500 05016G25KT 2SM -RA OVC003=



000
FTUS41 KCAR 221100
TAFCAR
TAF
KCAR 221120Z 2212/2312 02010KT P6SM BKN250
     FM221500 04010KT P6SM BKN110
     FM230000 05012KT 3SM -RA OVC020
     FM230100 05012KT P6SM OVC015=



000
FTUS41 KCAR 221000 AAB
TAFBGR
TAF AMD
KBGR 221051Z 2211/2306 02011KT 5SM -RA BR OVC070
     FM221500 04015G25KT 4SM -RA BR OVC007=



000
FTUS41 KCAR 220800 AAA
TAFBHB
TAF AMD
KBHB 220806Z 2208/2306 05015G22KT 5SM -RA BR OVC070
     FM221200 04017G25KT 2SM -RA BR OVC010
      AMD LTD TO CLD VIS AND WIND=



000
FTUS41 KCAR 220800 AAA
TAFBGR
TAF AMD
KBGR 220806Z 2208/2306 03011KT 5SM -RA BR OVC008=



000
FTUS41 KCAR 220500 RRA
TAFBHB
TAF
KBHB 220553Z 2206/2306 05012G17KT 2SM -RA OVC009
      AMD LTD TO CLD VIS AND WIND=



000
FTUS41 KCAR 220500 RRA
TAFBGR
TAF
KBGR 220553Z 2206/2306 03012KT 5SM -RA BR OVC005=



000
FTUS41 KCAR 220500 RRA
TAFPQI
TAF
KPQI 220553Z 2206/2306 01005KT P6SM OVC050
     FM221500 04010KT P6SM BKN050
     FM222000 05014KT P6SM BKN030
     FM222100 05014KT 3SM -RA OVC025
     FM230300 05012KT P6SM OVC015
      AMD LTD TO CLD VIS AND WIND=



000
FTUS41 KCAR 220500 RRA
TAFHUL
TAF
KHUL 220553Z 2206/2306 35005KT P6SM OVC035
     FM221400 06010KT 3SM -RA BKN040
     FM221800 06013KT 2SM -RA OVC025
     FM230200 05014KT 3SM -RA OVC010
     FM230300 06014KT 3SM -RA OVC008=



000
FTUS41 KCAR 220500 RRA
TAFCAR
TAF
KCAR 220553Z 2206/2306 03007KT P6SM OVC060
     FM221600 04011KT P6SM BKN050
     FM222100 05013KT P6SM BKN030
     FM230000 05012KT 3SM -RA OVC020
     FM230100 05012KT P6SM OVC020=



000
FTUS41 KCAR 220500 RRA
TAFBHB
TAF
KBHB 220553Z 2206/2306 05012G17KT 2SM -RA OVC009
      AMD LTD TO CLD VIS AND WIND=



000
FTUS41 KCAR 220500 RRA
TAFBGR
TAF
KBGR 220553Z 2206/2306 03012KT 5SM -RA BR OVC005=



000
FTUS41 KCAR 220500 RRA
TAFPQI
TAF
KPQI 220553Z 2206/2306 01005KT P6SM OVC050
     FM221500 04010KT P6SM BKN050
     FM222000 05014KT P6SM BKN030
     FM222100 05014KT 3SM -RA OVC025
     FM230300 05012KT P6SM OVC015
      AMD LTD TO CLD VIS AND WIND=



000
FTUS41 KCAR 220500 RRA
TAFHUL
TAF
KHUL 220553Z 2206/2306 35005KT P6SM OVC035
     FM221400 06010KT 3SM -RA BKN040
     FM221800 06013KT 2SM -RA OVC025
     FM230200 05014KT 3SM -RA OVC010
     FM230300 06014KT 3SM -RA OVC008=



000
FTUS41 KCAR 220500 RRA
TAFCAR
TAF
KCAR 220553Z 2206/2306 03007KT P6SM OVC060
     FM221600 04011KT P6SM BKN050
     FM222100 05013KT P6SM BKN030
     FM230000 05012KT 3SM -RA OVC020
     FM230100 05012KT P6SM OVC020=



000
FTUS41 KCAR 220100 AAA
TAFBHB
TAF AMD
KBHB 220149Z 2202/2224 07011KT 4SM -RA BKN007 OVC015
     FM220300 05012KT 3SM RA OVC007
     FM221300 04017G26KT 3SM RA OVC003
      AMD LTD TO CLD VIS AND WIND=



000
FTUS41 KCAR 220100 AAA
TAFBGR
TAF AMD
KBGR 220135Z 2202/2224 06008KT 4SM -RA OVC007
     FM220200 05008KT 3SM -RA OVC007
     FM220900 03012KT 3SM RA OVC010=



000
FTUS41 KCAR 212300
TAFBHB
TAF
KBHB 212322Z 2200/2224 07011KT 4SM -RA BKN007 OVC015
     FM220100 06011KT 4SM -RA OVC012
     FM220300 05012KT 3SM RA OVC010
     FM221300 04017G26KT 3SM RA OVC003
      AMD LTD TO CLD VIS AND WIND=



000
FTUS41 KCAR 212300
TAFBGR
TAF
KBGR 212322Z 2200/2224 06008KT 4SM -RA OVC019
     FM220200 05008KT 3SM -RA OVC020
     FM220900 03012KT 3SM RA OVC015=



000
FTUS41 KCAR 212300
TAFCAR
TAF
KCAR 212322Z 2200/2224 03004KT P6SM BKN070
     FM221200 03008KT P6SM BKN060
     FM221800 05010KT P6SM BKN025=



000
FTUS41 KCAR 212300
TAFPQI
TAF
KPQI 212322Z 2200/2224 03004KT P6SM BKN080
     FM221300 04008KT P6SM BKN060
     FM221700 04011KT P6SM BKN025
      AMD LTD TO CLD VIS AND WIND=



000
FTUS41 KCAR 212300
TAFHUL
TAF
KHUL 212322Z 2200/2224 04004KT P6SM BKN040
     FM221100 05008KT P6SM BKN045
     FM221200 05008KT P6SM BKN030
     FM221400 05011KT 5SM -RA OVC025=



000
FTUS41 KCAR 212300
TAFPQI
TAF
KPQI 212321Z 2200/2224 03004KT P6SM BKN080
     FM221300 04008KT P6SM BKN060
     FM221700 04011KT P6SM BKN025
      AMD LTD TO CLD VIS AND WIND=



000
FTUS41 KCAR 212300
TAFPQI
TAF
KPQI 212321Z 2200/2224 03004KT P6SM BKN080
     FM221300 04008KT P6SM BKN060
     FM221700 04011KT P6SM BKN025
      AMD LTD TO CLD VIS AND WIND=



000
FTUS41 KCAR 212300
TAFCAR
TAF
KCAR 212321Z 2200/2224 03004KT P6SM BKN070
     FM221200 03008KT P6SM BKN060
     FM221800 05010KT P6SM BKN025=



000
FTUS41 KCAR 212300
TAFHUL
TAF
KHUL 212321Z 2200/2224 04004KT P6SM BKN040
     FM221100 05008KT P6SM BKN045
     FM221200 05008KT P6SM BKN030
     FM221400 05011KT 5SM -RA OVC025=



000
FTUS41 KCAR 212300
TAFBGR
TAF
KBGR 212321Z 2200/2224 06008KT 4SM -RA OVC019
     FM220200 05008KT 3SM -RA OVC020
     FM220900 03012KT 3SM RA OVC015=



000
FTUS41 KCAR 212300
TAFCAR
TAF
KCAR 212321Z 2200/2224 03004KT P6SM BKN070
     FM221200 03008KT P6SM BKN060
     FM221800 05010KT P6SM BKN025=



000
FTUS41 KCAR 212300
TAFBHB
TAF
KBHB 212321Z 2200/2224 07011KT 4SM -RA OVC015
     FM220100 06011KT 4SM -RA OVC015
     FM220300 05012KT 3SM RA OVC010
     FM221300 04017G26KT 3SM RA OVC003
      AMD LTD TO CLD VIS AND WIND=



000
FTUS41 KCAR 212300
TAFBGR
TAF
KBGR 212321Z 2200/2224 06008KT 4SM -RA OVC019
     FM220200 05008KT 3SM -RA OVC020
     FM220900 03012KT 3SM RA OVC015=



000
FTUS41 KCAR 212300
TAFBHB
TAF
KBHB 212321Z 2200/2224 07011KT 4SM -RA OVC015
     FM220100 06011KT 4SM -RA OVC015
     FM220300 05012KT 3SM RA OVC010
     FM221300 04017G26KT 3SM RA OVC003
      AMD LTD TO CLD VIS AND WIND=



000
FTUS41 KCAR 212300
TAFHUL
TAF
KHUL 212321Z 2200/2224 04004KT P6SM BKN040
     FM221100 05008KT P6SM BKN045
     FM221200 05008KT P6SM BKN030
     FM221400 05011KT 5SM -RA OVC025=



000
FTUS41 KCAR 212300 AAA
TAFBHB
TAF AMD
KBHB 212303Z 2123/2218 06011KT 6SM -RA OVC015
     FM220200 06012KT 4SM -RA OVC015
     FM220600 04014G22KT 3SM RA OVC008
     FM221400 04020G29KT 3SM RA OVC008
      AMD LTD TO CLD VIS AND WIND=



000
FTUS41 KCAR 212300 AAA
TAFBHB
TAF AMD
KBHB 212303Z 2123/2218 06011KT 6SM -RA OVC015
     FM220200 06012KT 4SM -RA OVC015
     FM220600 04014G22KT 3SM RA OVC008
     FM221400 04020G29KT 3SM RA OVC008
      AMD LTD TO CLD VIS AND WIND=



000
FTUS41 KCAR 212300 AAB
TAFBGR
TAF AMD
KBGR 212303Z 2123/2218 07008KT 6SM -RA OVC025
     FM220200 05012KT 5SM -RA OVC015
     FM220900 03015G23KT 3SM -RA OVC009=



000
FTUS41 KCAR 212300 AAB
TAFBGR
TAF AMD
KBGR 212303Z 2123/2218 07008KT 6SM -RA OVC025
     FM220200 05012KT 5SM -RA OVC015
     FM220900 03015G23KT 3SM -RA OVC009=



000
FTUS41 KCAR 211800 AAA
TAFBGR
TAF AMD
KBGR 211851Z 2119/2218 07006KT P6SM OVC035
     FM212000 07008KT 6SM -RA OVC025
     FM220200 05012KT 5SM -RA OVC015
     FM220900 03015G23KT 3SM -RA OVC009=



000
FTUS41 KCAR 211700
TAFCAR
TAF
KCAR 211729Z 2118/2218 03005KT P6SM OVC050
     FM221200 04011KT P6SM OVC035=



000
FTUS41 KCAR 211700
TAFHUL
TAF
KHUL 211729Z 2118/2218 02005KT P6SM OVC060
     FM220600 04007KT P6SM OVC035
     FM221400 05012KT 5SM -RA OVC025=



000
FTUS41 KCAR 211700
TAFBHB
TAF
KBHB 211729Z 2118/2218 07005KT P6SM -RA OVC045
     FM212100 06011KT 6SM -RA OVC025
     FM220200 06012KT 4SM -RA OVC015
     FM220600 04014G22KT 3SM RA OVC008
     FM221400 04020G29KT 3SM RA OVC008
      AMD LTD TO CLD VIS AND WIND=



000
FTUS41 KCAR 211700
TAFBGR
TAF
KBGR 211729Z 2118/2218 07006KT P6SM OVC030
     FM212000 07008KT 6SM -RA OVC025
     FM220200 05012KT 5SM -RA OVC015
     FM220900 03015G23KT 3SM -RA OVC009=



000
FTUS41 KCAR 211700
TAFPQI
TAF
KPQI 211729Z 2118/2218 03005KT P6SM OVC050
     FM221200 04011KT P6SM OVC035
      AMD LTD TO CLD VIS AND WIND=



000
FTUS41 KCAR 211200 AAA
TAFBHB
TAF AMD
KBHB 211222Z 2112/2212 36004KT P6SM OVC100
     FM211800 09011KT 4SM -RA OVC025
     FM221000 05018KT 2SM -RA OVC008
      AMD LTD TO CLD VIS AND WIND=



000
FTUS41 KCAR 211200 AAA
TAFHUL
TAF AMD
KHUL 211221Z 2112/2212 00000KT P6SM BKN080
     FM220000 05004KT P6SM OVC045
     FM220600 04007KT 2SM -RA OVC025=



000
FTUS41 KCAR 211200 AAA
TAFBGR
TAF AMD
KBGR 211221Z 2112/2212 00000KT P6SM OVC060
     FM211900 10006KT 5SM -RA OVC025
     FM220100 06010KT 2SM -RA OVC025=



000
FTUS41 KCAR 211200 AAA
TAFPQI
TAF AMD
KPQI 211220Z 2112/2212 00000KT P6SM BKN250
     FM220400 03006KT P6SM OVC040
     FM220500 03006KT 3SM -RA OVC030
     FM220900 03007KT P6SM OVC025
      AMD LTD TO CLD VIS AND WIND=



000
FTUS41 KCAR 211100
TAFPQI
TAF
KPQI 211123Z 2112/2212 00000KT P6SM BKN250
     FM220400 03006KT P6SM OVC040
     FM220500 03006KT 3SM -RA OVC030
     FM220800 03007KT 2SM -RASN OVC025
     FM220900 03007KT P6SM OVC025
      AMD LTD TO CLD VIS AND WIND=



000
FTUS41 KCAR 211100
TAFBHB
TAF
KBHB 211123Z 2112/2212 36004KT P6SM OVC100
     FM211600 13006KT 3SM -RA BKN040
     FM212200 09011KT 2SM -RA OVC025
     FM221000 05018KT 2SM -RA OVC008
      AMD LTD TO CLD VIS AND WIND=



000
FTUS41 KCAR 211100
TAFBGR
TAF
KBGR 211123Z 2112/2212 00000KT P6SM OVC060
     FM211700 11004KT 3SM -RA OVC025
     FM212000 10006KT 2SM -RA OVC025
     FM220100 06010KT 2SM -RA OVC025=



000
FTUS41 KCAR 211100
TAFCAR
TAF
KCAR 211123Z 2112/2212 00000KT P6SM BKN250
     FM220600 04006KT P6SM OVC025=



000
FTUS41 KCAR 211100
TAFHUL
TAF
KHUL 211123Z 2112/2212 00000KT P6SM BKN080
     FM220000 05004KT 3SM -RA OVC045
     FM220400 04007KT 2SM -RA OVC025=



000
FTUS41 KCAR 211100
TAFBGR
TAF
KBGR 211123Z 2112/2212 00000KT P6SM OVC060
     FM211700 11004KT 3SM -RA OVC025
     FM212000 10006KT 2SM -RA OVC025
     FM220100 06010KT 2SM -RA OVC025=



000
FTUS41 KCAR 211100
TAFBHB
TAF
KBHB 211123Z 2112/2212 36004KT P6SM OVC100
     FM211600 13006KT 3SM -RA BKN040
     FM212200 09011KT 2SM -RA OVC025
     FM221000 05018KT 2SM -RA OVC008
      AMD LTD TO CLD VIS AND WIND=



000
FTUS41 KCAR 211100
TAFCAR
TAF
KCAR 211123Z 2112/2212 00000KT P6SM BKN250
     FM220600 04006KT P6SM OVC025=



000
FTUS41 KCAR 211100
TAFPQI
TAF
KPQI 211123Z 2112/2212 00000KT P6SM BKN250
     FM220400 03006KT P6SM OVC040
     FM220500 03006KT 3SM -RA OVC030
     FM220800 03007KT 2SM -RASN OVC025
     FM220900 03007KT P6SM OVC025
      AMD LTD TO CLD VIS AND WIND=



000
FTUS41 KCAR 211100
TAFHUL
TAF
KHUL 211123Z 2112/2212 00000KT P6SM BKN080
     FM220000 05004KT 3SM -RA OVC045
     FM220400 04007KT 2SM -RA OVC025=



000
FTUS41 KCAR 210500
TAFBHB
TAF
KBHB 210536Z 2106/2206 00000KT P6SM BKN090
     FM211500 12006KT P6SM BKN050
     FM211600 13006KT 3SM -RA BKN045
     FM212200 09011KT 2SM -RA OVC025
      AMD LTD TO CLD VIS AND WIND=



000
FTUS41 KCAR 210500
TAFHUL
TAF
KHUL 210536Z 2106/2206 00000KT P6SM BKN250
     FM220000 05004KT 3SM -RA OVC045
     FM220400 04007KT 2SM -RA OVC025=



000
FTUS41 KCAR 210500
TAFBGR
TAF
KBGR 210536Z 2106/2206 00000KT P6SM OVC090
     FM211700 11004KT 3SM -RA OVC035
     FM212000 10006KT 2SM -RA OVC025
     FM220100 06010KT 2SM -RA OVC025=



000
FTUS41 KCAR 210500
TAFPQI
TAF
KPQI 210536Z 2106/2206 VRB03KT P6SM BKN250
     FM220400 03006KT P6SM OVC045
     FM220500 03006KT 3SM -RA OVC040
      AMD LTD TO CLD VIS AND WIND=



000
FTUS41 KCAR 210500
TAFCAR
TAF
KCAR 210536Z 2106/2206 VRB03KT P6SM BKN250=



000
FTUS41 KCAR 202300
TAFCAR
TAF
KCAR 202320Z 2100/2124 26007KT P6SM FEW250
     FM210900 VRB03KT P6SM SCT250=



000
FTUS41 KCAR 202300
TAFBHB
TAF
KBHB 202320Z 2100/2124 25008KT P6SM SCT250
     FM210400 28004KT P6SM BKN250
     FM211300 10006KT P6SM BKN100
     FM211900 11008KT P6SM -RA OVC025
      AMD LTD TO CLD VIS AND WIND=



000
FTUS41 KCAR 202300
TAFBGR
TAF
KBGR 202320Z 2100/2124 24005KT P6SM SCT250
     FM210300 00000KT P6SM BKN250
     FM211900 10005KT P6SM OVC025=



000
FTUS41 KCAR 202300
TAFPQI
TAF
KPQI 202320Z 2100/2124 26006KT P6SM FEW250
     FM211100 00000KT P6SM SCT250
      AMD LTD TO CLD VIS AND WIND=



000
FTUS41 KCAR 202300
TAFHUL
TAF
KHUL 202320Z 2100/2124 26006KT P6SM SCT250
     FM211100 00000KT P6SM BKN250=



000
FTUS41 KCAR 201900 AAA
TAFHUL
TAF AMD
KHUL 201900Z 2019/2118 27012G22KT P6SM SCT040
     FM211100 VRB03KT P6SM SCT100=



000
FTUS41 KCAR 201700
TAFCAR
TAF
KCAR 201720Z 2018/2118 28012G22KT P6SM BKN040
     FM202000 27009KT P6SM FEW250
     FM210900 VRB03KT P6SM SCT250=



000
FTUS41 KCAR 201700
TAFBGR
TAF
KBGR 201720Z 2018/2118 26009G16KT P6SM SCT080
     FM202300 24005KT P6SM BKN250=



000
FTUS41 KCAR 201700
TAFPQI
TAF
KPQI 201720Z 2018/2118 28012G22KT P6SM BKN040
     FM202000 27009KT P6SM FEW250
     FM211000 VRB03KT P6SM SCT250
      AMD LTD TO CLD VIS AND WIND=



000
FTUS41 KCAR 201700
TAFHUL
TAF
KHUL 201720Z 2018/2118 27012G22KT P6SM BKN035
     FM201900 27009KT P6SM SCT250
     FM211100 VRB03KT P6SM SCT100=



000
FTUS41 KCAR 201700
TAFBHB
TAF
KBHB 201720Z 2018/2118 25009G16KT P6SM SCT080
     FM202300 25008KT P6SM SCT250
     FM210400 VRB03KT P6SM BKN100
      AMD LTD TO CLD VIS AND WIND=



000
FTUS41 KCAR 201300 AAA
TAFBHB
TAF AMD
KBHB 201354Z 2014/2112 27009G18KT P6SM SCT040
     FM202000 25010KT P6SM BKN250
     FM210000 25006KT P6SM BKN250
     FM210600 00000KT P6SM BKN250
      AMD LTD TO CLD VIS AND WIND=



000
FTUS41 KCAR 201300 AAA
TAFHUL
TAF AMD
KHUL 201354Z 2014/2112 26008G18KT P6SM OVC030
     FM201600 28005KT P6SM SCT040
     FM210300 26004KT P6SM BKN250
     FM211000 00000KT P6SM BKN250=



000
FTUS41 KCAR 201300 AAA
TAFCAR
TAF AMD
KCAR 201353Z 2014/2112 27009G18KT P6SM SCT025 BKN040
     FM202000 27010KT P6SM SCT250
     FM210000 25006KT P6SM BKN250
     FM211000 00000KT P6SM BKN250=



000
FTUS41 KCAR 201300 AAA
TAFPQI
TAF AMD
KPQI 201353Z 2014/2112 27009G18KT P6SM SCT025 BKN035
     FM210300 25004KT P6SM BKN250
      AMD LTD TO CLD VIS AND WIND=



000
FTUS41 KCAR 201100
TAFPQI
TAF
KPQI 201120Z 2012/2112 27007KT P6SM SCT250
     FM210300 25004KT P6SM BKN250
      AMD LTD TO CLD VIS AND WIND=



000
FTUS41 KCAR 201100
TAFCAR
TAF
KCAR 201120Z 2012/2112 27006KT P6SM SCT250
     FM202000 27010KT P6SM SCT250
     FM210000 25006KT P6SM BKN250
     FM211000 00000KT P6SM BKN250=



000
FTUS41 KCAR 201100
TAFBHB
TAF
KBHB 201120Z 2012/2112 27005KT P6SM SCT250
     FM202000 25010KT P6SM BKN250
     FM210000 25006KT P6SM BKN250
     FM210600 00000KT P6SM BKN250
      AMD LTD TO CLD VIS AND WIND=



000
FTUS41 KCAR 201100
TAFHUL
TAF
KHUL 201120Z 2012/2112 26006KT P6SM OVC040
     FM201600 28005KT P6SM SCT040
     FM210300 26004KT P6SM BKN250
     FM211000 00000KT P6SM BKN250=



000
FTUS41 KCAR 201100
TAFBGR
TAF
KBGR 201120Z 2012/2112 28007KT P6SM BKN040
     FM201600 28005KT P6SM SCT040
     FM210100 VRB03KT P6SM BKN250=



000
FTUS41 KCAR 200500 RRA
TAFBHB
TAF
KBHB 200550Z 2006/2106 29005KT P6SM OVC060
     FM201500 27010KT P6SM SCT250
     FM202300 25006KT P6SM BKN250
     FM210500 00000KT P6SM BKN110
      AMD LTD TO CLD VIS AND WIND=



000
FTUS41 KCAR 200500 RRA
TAFHUL
TAF
KHUL 200550Z 2006/2106 30007KT P6SM OVC050
     FM201500 28011KT P6SM SCT250
     FM202300 26007KT P6SM SCT250=



000
FTUS41 KCAR 200500 RRA
TAFBGR
TAF
KBGR 200550Z 2006/2106 29008KT P6SM OVC060
     FM201700 29005KT P6SM BKN250
     FM210300 00000KT P6SM BKN080=



000
FTUS41 KCAR 200500 RRA
TAFPQI
TAF
KPQI 200550Z 2006/2106 31008KT P6SM OVC060
     FM201100 28008KT P6SM SCT250
     FM201400 28012KT P6SM SCT250
     FM202300 26008KT P6SM SCT250
     FM210300 25004KT P6SM BKN110
      AMD LTD TO CLD VIS AND WIND=



000
FTUS41 KCAR 200500 RRA
TAFCAR
TAF
KCAR 200550Z 2006/2106 31008KT P6SM SCT050
     FM201400 28012KT P6SM SCT250
     FM202300 26008KT P6SM SCT250
     FM210300 25004KT P6SM BKN120=



000
FTUS41 KCAR 192300
TAFBGR
TAF
KBGR 192320Z 2000/2024 31009KT P6SM BKN045
     FM201300 27008KT P6SM FEW250=



000
FTUS41 KCAR 192300
TAFBHB
TAF
KBHB 192320Z 2000/2024 32013KT P6SM BKN045
     FM200900 28009KT P6SM SCT250
      AMD LTD TO CLD VIS AND WIND=



000
FTUS41 KCAR 192300
TAFCAR
TAF
KCAR 192320Z 2000/2024 32006KT P6SM BKN040
     FM200900 29010KT P6SM SCT110=



000
FTUS41 KCAR 192300
TAFHUL
TAF
KHUL 192320Z 2000/2024 32007KT P6SM BKN035
     FM201500 28011KT P6SM FEW250
     FM202300 26007KT P6SM SCT250=



000
FTUS41 KCAR 192300
TAFPQI
TAF
KPQI 192320Z 2000/2024 32007KT P6SM BKN035
     FM201400 28012KT P6SM FEW250
     FM202300 26008KT P6SM SCT250
      AMD LTD TO CLD VIS AND WIND=



000
FTUS41 KCAR 192300
TAFBHB
TAF
KBHB 192320Z 2000/2024 32013KT P6SM BKN045
     FM200900 28009KT P6SM SCT250
      AMD LTD TO CLD VIS AND WIND=



000
FTUS41 KCAR 192300
TAFBGR
TAF
KBGR 192320Z 2000/2024 31009KT P6SM BKN045
     FM201300 27008KT P6SM FEW250=



000
FTUS41 KCAR 192300
TAFPQI
TAF
KPQI 192320Z 2000/2024 32007KT P6SM BKN035
     FM201400 28012KT P6SM FEW250
     FM202300 26008KT P6SM SCT250
      AMD LTD TO CLD VIS AND WIND=



000
FTUS41 KCAR 192300
TAFCAR
TAF
KCAR 192320Z 2000/2024 32006KT P6SM BKN040
     FM200900 29010KT P6SM SCT110=



000
FTUS41 KCAR 192300
TAFHUL
TAF
KHUL 192320Z 2000/2024 32007KT P6SM BKN035
     FM201500 28011KT P6SM FEW250
     FM202300 26007KT P6SM SCT250=



000
FTUS41 KCAR 191900 AAA
TAFBGR
TAF AMD
KBGR 191911Z 1919/2018 32012G22KT P6SM BKN040
     FM201300 27008KT P6SM FEW250=



000
FTUS41 KCAR 191900 AAA
TAFHUL
TAF AMD
KHUL 191910Z 1919/2018 31007KT P6SM BKN040
     FM200600 31007KT P6SM SCT120
     FM201500 28011KT P6SM FEW250=



000
FTUS41 KCAR 191800 AAA
TAFBHB
TAF AMD
KBHB 191802Z 1918/2018 32008KT P6SM BKN035
     FM192100 32008KT P6SM BKN050
     FM200000 32013KT P6SM SCT040
     FM201500 27010KT P6SM SCT250
      AMD LTD TO CLD VIS AND WIND=



000
FTUS41 KCAR 191800 AAA
TAFCAR
TAF AMD
KCAR 191802Z 1918/2018 30009KT P6SM BKN040
     FM201400 28012KT P6SM FEW250=



000
FTUS41 KCAR 191700
TAFPQI
TAF
KPQI 191736Z 1918/2018 30009KT P6SM BKN040
     FM201500 28014KT P6SM FEW250
      AMD LTD TO CLD VIS AND WIND=



000
FTUS41 KCAR 191700
TAFBHB
TAF
KBHB 191736Z 1918/2018 32008KT P6SM BKN030
     FM192100 32008KT P6SM BKN050
     FM200000 32013KT P6SM SCT040
     FM201500 27010KT P6SM SCT250
      AMD LTD TO CLD VIS AND WIND=



000
FTUS41 KCAR 191700
TAFBGR
TAF
KBGR 191736Z 1918/2018 32008KT P6SM BKN035
     FM191900 32008KT P6SM SCT060
     FM201300 27008KT P6SM FEW250=



000
FTUS41 KCAR 191700
TAFHUL
TAF
KHUL 191736Z 1918/2018 31009G18KT P6SM BKN035
     FM191900 31007KT P6SM BKN025
     FM200600 31007KT P6SM SCT120
     FM201500 28011KT P6SM FEW250=



000
FTUS41 KCAR 191700
TAFCAR
TAF
KCAR 191736Z 1918/2018 30009KT P6SM BKN035
     FM192000 30008KT P6SM BKN050
     FM192200 30007KT P6SM BKN050
     FM201400 28012KT P6SM FEW250=



000
FTUS41 KCAR 191600 AAC
TAFBHB
TAF AMD
KBHB 191646Z 1917/2012 36008G16KT P6SM BKN050
     FM200000 32010G18KT P6SM SCT050
     FM200600 27008KT P6SM SCT200
      AMD LTD TO CLD VIS AND WIND=



000
FTUS41 KCAR 191600 AAC
TAFHUL
TAF AMD
KHUL 191645Z 1917/2012 31008G16KT P6SM BKN035
     FM200600 28008KT P6SM SCT050=



000
FTUS41 KCAR 191600 AAC
TAFPQI
TAF AMD
KPQI 191645Z 1917/2012 29008G16KT P6SM BKN035
     FM200600 28008G16KT P6SM SCT040
      AMD LTD TO CLD VIS AND WIND=



000
FTUS41 KCAR 191500 AAB
TAFBHB
TAF AMD
KBHB 191549Z 1916/2012 32008G16KT P6SM BKN050
     FM200000 32010G18KT P6SM SCT050
     FM200600 27008KT P6SM SCT200
      AMD LTD TO CLD VIS AND WIND=



000
FTUS41 KCAR 191500 AAB
TAFPQI
TAF AMD
KPQI 191548Z 1916/2012 32008G16KT P6SM BKN035
     FM200600 28008G16KT P6SM SCT040
      AMD LTD TO CLD VIS AND WIND=



000
FTUS41 KCAR 191500 AAB
TAFHUL
TAF AMD
KHUL 191548Z 1916/2012 29008G16KT P6SM BKN020
     FM200600 28008KT P6SM SCT050=



000
FTUS41 KCAR 191500 AAB
TAFCAR
TAF AMD
KCAR 191547Z 1916/2012 32012G18KT P6SM BKN035
     FM200600 28010G18KT P6SM SCT040=



000
FTUS41 KCAR 191400 AAA
TAFHUL
TAF AMD
KHUL 191428Z 1914/2012 33010G18KT P6SM SCT025 OVC040
     FM191500 32010G18KT P6SM OVC040
     FM200600 28008KT P6SM SCT050=



000
FTUS41 KCAR 191300 AAA
TAFBGR
TAF AMD
KBGR 191310Z 1913/2012 32009G16KT P6SM SCT025 BKN050
     FM191400 32010G18KT P6SM BKN050
     FM200000 32010G18KT P6SM SCT050
     FM200600 28008KT P6SM SCT200=



000
FTUS41 KCAR 191300 AAA
TAFBHB
TAF AMD
KBHB 191310Z 1913/2012 32008G16KT P6SM SCT025 BKN050
     FM191400 32010G18KT P6SM BKN050
     FM200000 32010G18KT P6SM SCT050
     FM200600 27008KT P6SM SCT200
      AMD LTD TO CLD VIS AND WIND=



000
FTUS41 KCAR 191300 AAA
TAFPQI
TAF AMD
KPQI 191309Z 1913/2012 32008G16KT P6SM SCT015 BKN040
     FM191500 32012G22KT P6SM OVC040
     FM200600 28008G16KT P6SM SCT040
      AMD LTD TO CLD VIS AND WIND=



000
FTUS41 KCAR 191300 AAA
TAFCAR
TAF AMD
KCAR 191308Z 1913/2012 32010G18KT P6SM SCT015 BKN040
     FM191500 32012G22KT P6SM OVC040
     FM200600 28010G18KT P6SM SCT040=



    US Dept of Commerce
    National Oceanic and Atmospheric Administration
    National Weather Service
    1325 East West Highway
    Silver Spring, MD 20910
    Page Author: NWS Internet Services Team
Disclaimer
Information Quality
Credits
Glossary
Privacy Policy
Freedom of Information Act (FOIA)
About Us
Career Opportunities